createdAt,value
2023-01-30T00:00:41.632Z,97458.69
2023-01-30T00:01:44.347Z,97458.44
2023-01-30T00:02:46.298Z,97463.44
2023-01-30T00:03:48.518Z,97462.50
2023-01-30T00:04:50.656Z,97456.34
2023-01-30T00:05:53.428Z,97462.16
2023-01-30T00:06:55.887Z,97454.47
2023-01-30T00:07:58.097Z,97450.06
2023-01-30T00:09:00.192Z,97456.19
2023-01-30T00:10:02.228Z,97457.03
2023-01-30T00:11:06.267Z,97456.19
2023-01-30T00:12:08.351Z,97456.19
2023-01-30T00:13:10.914Z,97465.66
2023-01-30T00:14:13.036Z,97457.84
2023-01-30T00:15:15.189Z,97452.94
2023-01-30T00:16:18.836Z,97457.38
2023-01-30T00:17:21.079Z,97452.13
2023-01-30T00:18:23.151Z,97450.03
2023-01-30T00:19:25.102Z,97449.47
2023-01-30T00:20:27.160Z,97451.22
2023-01-30T00:21:29.146Z,97444.34
2023-01-30T00:22:31.450Z,97447.03
2023-01-30T00:23:35.182Z,97448.66
2023-01-30T00:24:37.562Z,97440.03
2023-01-30T00:25:39.637Z,97449.34
2023-01-30T00:26:42.173Z,97443.16
2023-01-30T00:27:44.191Z,97440.38
2023-01-30T00:28:46.291Z,97434.09
2023-01-30T00:29:57.766Z,97432.22
2023-01-30T00:31:04.524Z,97429.66
2023-01-30T00:32:06.519Z,97424.75
2023-01-30T00:33:10.217Z,97429.78
2023-01-30T00:34:12.183Z,97434.56
2023-01-30T00:35:14.315Z,97423.72
2023-01-30T00:36:16.502Z,97430.25
2023-01-30T00:37:18.460Z,97426.75
2023-01-30T00:38:21.721Z,97422.66
2023-01-30T00:39:24.020Z,97426.06
2023-01-30T00:40:27.743Z,97425.13
2023-01-30T00:41:49.813Z,97422.66
2023-01-30T00:44:32.198Z,97414.75
2023-01-30T00:45:52.990Z,97412.69
2023-01-30T00:47:07.427Z,97405.44
2023-01-30T00:48:09.536Z,97402.44
2023-01-30T00:49:11.814Z,97406.75
2023-01-30T00:50:13.763Z,97400.81
2023-01-30T00:51:16.272Z,97397.78
2023-01-30T00:52:18.088Z,97393.38
2023-01-30T00:53:20.330Z,97394.75
2023-01-30T00:54:22.388Z,97401.16
2023-01-30T00:55:24.416Z,97389.63
2023-01-30T00:56:26.400Z,97390.47
2023-01-30T00:57:28.524Z,97387.91
2023-01-30T00:58:30.473Z,97396.59
2023-01-30T00:59:32.536Z,97395.00
2023-01-30T01:00:34.763Z,97391.38
2023-01-30T01:01:38.021Z,97392.19
2023-01-30T01:02:40.260Z,97390.81
2023-01-30T01:03:42.689Z,97382.19
2023-01-30T01:04:44.534Z,97380.31
2023-01-30T01:05:47.468Z,97376.59
2023-01-30T01:06:49.489Z,97373.91
2023-01-30T01:07:51.523Z,97376.00
2023-01-30T01:08:53.619Z,97372.03
2023-01-30T01:09:55.909Z,97372.50
2023-01-30T01:10:58.006Z,97362.50
2023-01-30T01:12:00.379Z,97367.06
2023-01-30T01:13:03.165Z,97370.75
2023-01-30T01:14:06.686Z,97368.22
2023-01-30T01:15:08.929Z,97372.06
2023-01-30T01:16:11.154Z,97362.75
2023-01-30T01:17:13.198Z,97359.16
2023-01-30T01:18:15.308Z,97359.63
2023-01-30T01:19:17.657Z,97358.56
2023-01-30T01:20:20.172Z,97360.53
2023-01-30T01:21:23.124Z,97357.84
2023-01-30T01:22:25.063Z,97352.63
2023-01-30T01:23:27.000Z,97357.97
2023-01-30T01:24:29.126Z,97355.88
2023-01-30T01:25:31.344Z,97347.50
2023-01-30T01:26:34.054Z,97343.91
2023-01-30T01:27:36.800Z,97349.81
2023-01-30T01:28:38.860Z,97351.69
2023-01-30T01:29:41.036Z,97352.38
2023-01-30T01:30:43.043Z,97349.47
2023-01-30T01:31:45.357Z,97344.13
2023-01-30T01:32:47.324Z,97346.34
2023-01-30T01:33:49.318Z,97344.00
2023-01-30T01:34:51.325Z,97345.03
2023-01-30T01:35:57.095Z,97340.75
2023-01-30T01:36:59.195Z,97337.72
2023-01-30T01:38:01.267Z,97338.75
2023-01-30T01:39:03.946Z,97339.09
2023-01-30T01:40:25.588Z,97339.22
2023-01-30T01:41:27.991Z,97346.53
2023-01-30T01:42:31.012Z,97347.03
2023-01-30T01:43:36.815Z,97342.16
2023-01-30T01:45:19.453Z,97337.38
2023-01-30T01:46:27.409Z,97332.38
2023-01-30T01:47:32.061Z,97330.66
2023-01-30T01:48:41.850Z,97333.53
2023-01-30T01:49:44.682Z,97335.59
2023-01-30T01:50:59.679Z,97339.56
2023-01-30T01:52:01.660Z,97341.66
2023-01-30T01:53:03.985Z,97335.25
2023-01-30T01:54:18.989Z,97337.13
2023-01-30T01:55:24.149Z,97343.97
2023-01-30T01:56:27.316Z,97334.09
2023-01-30T01:57:35.412Z,97334.09
2023-01-30T01:58:51.124Z,97330.28
2023-01-30T02:00:07.015Z,97332.84
2023-01-30T02:01:09.185Z,97328.53
2023-01-30T02:02:14.780Z,97326.88
2023-01-30T02:03:24.634Z,97319.22
2023-01-30T02:04:47.024Z,97324.06
2023-01-30T02:05:53.389Z,97311.28
2023-01-30T02:06:55.424Z,97314.19
2023-01-30T02:08:20.083Z,97311.66
2023-01-30T02:09:22.142Z,97311.97
2023-01-30T02:10:34.450Z,97310.91
2023-01-30T02:11:46.547Z,97316.00
2023-01-30T02:12:51.077Z,97308.34
2023-01-30T02:13:53.781Z,97311.34
2023-01-30T02:14:59.378Z,97310.19
2023-01-30T02:16:03.388Z,97315.53
2023-01-30T02:17:05.725Z,97305.44
2023-01-30T02:18:08.067Z,97299.81
2023-01-30T02:19:23.045Z,97303.78
2023-01-30T02:20:45.276Z,97307.72
2023-01-30T02:22:08.995Z,97307.44
2023-01-30T02:23:17.005Z,97304.06
2023-01-30T02:24:36.335Z,97308.66
2023-01-30T02:26:16.322Z,97306.34
2023-01-30T02:27:41.148Z,97302.91
2023-01-30T02:28:48.518Z,97302.13
2023-01-30T02:30:28.686Z,97297.38
2023-01-30T02:31:58.672Z,97299.22
2023-01-30T02:33:21.174Z,97292.47
2023-01-30T02:34:49.617Z,97291.41
2023-01-30T02:36:26.694Z,97282.28
2023-01-30T02:37:56.008Z,97285.50
2023-01-30T02:39:28.679Z,97285.72
2023-01-30T02:40:58.981Z,97279.91
2023-01-30T02:42:38.259Z,97273.84
2023-01-30T02:43:58.652Z,97278.13
2023-01-30T02:45:30.838Z,97272.81
2023-01-30T02:46:36.605Z,97269.94
2023-01-30T02:48:10.058Z,97268.41
2023-01-30T02:49:18.971Z,97274.94
2023-01-30T02:50:25.480Z,97269.59
2023-01-30T02:51:30.943Z,97262.22
2023-01-30T02:52:34.471Z,97262.78
2023-01-30T02:53:37.594Z,97265.47
2023-01-30T02:54:39.720Z,97270.97
2023-01-30T02:55:42.370Z,97272.19
2023-01-30T02:56:50.538Z,97273.47
2023-01-30T02:57:52.625Z,97266.50
2023-01-30T02:59:06.292Z,97268.06
2023-01-30T03:00:09.127Z,97264.81
2023-01-30T03:01:32.093Z,97258.91
2023-01-30T03:03:07.956Z,97255.91
2023-01-30T03:04:51.108Z,97247.44
2023-01-30T03:06:20.706Z,97253.91
2023-01-30T03:07:41.037Z,97247.50
2023-01-30T03:08:51.899Z,97256.19
2023-01-30T03:10:15.943Z,97254.59
2023-01-30T03:11:18.631Z,97251.00
2023-01-30T03:12:41.217Z,97248.00
2023-01-30T03:14:06.992Z,97244.88
2023-01-30T03:15:41.277Z,97249.44
2023-01-30T03:16:43.989Z,97241.44
2023-01-30T03:17:48.211Z,97262.25
2023-01-30T03:18:50.304Z,97257.63
2023-01-30T03:19:54.650Z,97259.13
2023-01-30T03:20:56.946Z,97252.06
2023-01-30T03:21:59.012Z,97255.31
2023-01-30T03:23:01.515Z,97247.41
2023-01-30T03:24:03.559Z,97246.25
2023-01-30T03:25:06.127Z,97244.31
2023-01-30T03:26:13.393Z,97245.81
2023-01-30T03:27:15.378Z,97243.38
2023-01-30T03:28:20.305Z,97247.09
2023-01-30T03:29:22.481Z,97247.09
2023-01-30T03:30:27.884Z,97254.28
2023-01-30T03:31:30.172Z,97252.06
2023-01-30T03:32:32.398Z,97258.19
2023-01-30T03:33:34.467Z,97242.88
2023-01-30T03:34:36.466Z,97240.44
2023-01-30T03:35:38.957Z,97246.38
2023-01-30T03:36:41.479Z,97249.63
2023-01-30T03:37:46.061Z,97254.94
2023-01-30T03:38:48.332Z,97262.50
2023-01-30T03:39:50.791Z,97253.91
2023-01-30T03:40:52.611Z,97255.31
2023-01-30T03:41:54.888Z,97261.03
2023-01-30T03:42:57.059Z,97257.44
2023-01-30T03:43:59.025Z,97262.09
2023-01-30T03:45:01.061Z,97255.13
2023-01-30T03:46:03.386Z,97259.88
2023-01-30T03:47:05.480Z,97266.75
2023-01-30T03:48:07.701Z,97268.81
2023-01-30T03:49:09.648Z,97264.41
2023-01-30T03:50:11.911Z,97266.97
2023-01-30T03:51:13.955Z,97266.03
2023-01-30T03:52:15.972Z,97263.69
2023-01-30T03:53:18.013Z,97276.47
2023-01-30T03:54:20.496Z,97263.59
2023-01-30T03:55:22.469Z,97266.03
2023-01-30T03:56:24.593Z,97264.19
2023-01-30T03:57:26.662Z,97259.88
2023-01-30T03:58:28.656Z,97266.50
2023-01-30T03:59:30.653Z,97261.28
2023-01-30T04:00:33.379Z,97258.63
2023-01-30T04:01:35.375Z,97264.53
2023-01-30T04:02:38.936Z,97263.50
2023-01-30T04:03:40.996Z,97260.13
2023-01-30T04:04:42.969Z,97261.88
2023-01-30T04:05:45.128Z,97261.88
2023-01-30T04:06:47.196Z,97259.66
2023-01-30T04:07:50.146Z,97261.53
2023-01-30T04:08:55.328Z,97266.84
2023-01-30T04:09:57.708Z,97260.00
2023-01-30T04:10:59.925Z,97262.34
2023-01-30T04:12:01.931Z,97251.88
2023-01-30T04:13:04.028Z,97247.44
2023-01-30T04:14:06.175Z,97251.75
2023-01-30T04:15:09.039Z,97257.44
2023-01-30T04:16:19.883Z,97264.19
2023-01-30T04:17:21.963Z,97263.03
2023-01-30T04:18:24.067Z,97267.00
2023-01-30T04:19:26.130Z,97265.34
2023-01-30T04:20:28.332Z,97253.50
2023-01-30T04:21:30.419Z,97259.53
2023-01-30T04:22:32.697Z,97249.31
2023-01-30T04:23:34.763Z,97252.81
2023-01-30T04:24:36.749Z,97250.16
2023-01-30T04:25:38.828Z,97253.63
2023-01-30T04:26:40.902Z,97252.91
2023-01-30T04:27:43.703Z,97249.75
2023-01-30T04:28:45.792Z,97247.09
2023-01-30T04:29:48.071Z,97255.09
2023-01-30T04:30:50.263Z,97249.16
2023-01-30T04:31:52.431Z,97251.28
2023-01-30T04:32:54.436Z,97248.38
2023-01-30T04:33:56.839Z,97246.66
2023-01-30T04:34:58.677Z,97252.66
2023-01-30T04:36:01.518Z,97258.03
2023-01-30T04:37:03.529Z,97259.53
2023-01-30T04:38:05.534Z,97259.44
2023-01-30T04:39:07.751Z,97247.91
2023-01-30T04:40:10.365Z,97248.25
2023-01-30T04:41:12.355Z,97248.25
2023-01-30T04:42:17.518Z,97259.28
2023-01-30T04:43:20.562Z,97255.56
2023-01-30T04:44:24.211Z,97260.56
2023-01-30T04:45:26.308Z,97262.09
2023-01-30T04:46:28.499Z,97276.28
2023-01-30T04:47:30.688Z,97267.09
2023-01-30T04:48:32.895Z,97263.69
2023-01-30T04:49:34.943Z,97253.38
2023-01-30T04:50:36.922Z,97258.47
2023-01-30T04:51:39.018Z,97250.00
2023-01-30T04:52:41.072Z,97249.75
2023-01-30T04:53:43.109Z,97253.03
2023-01-30T04:54:45.495Z,97248.84
2023-01-30T04:55:47.467Z,97239.53
2023-01-30T04:56:49.444Z,97225.94
2023-01-30T04:57:51.463Z,97219.34
2023-01-30T04:58:53.535Z,97224.88
2023-01-30T04:59:55.472Z,97230.41
2023-01-30T05:01:18.022Z,97237.38
2023-01-30T05:02:21.820Z,97236.88
2023-01-30T05:03:25.055Z,97247.44
2023-01-30T05:04:27.091Z,97240.94
2023-01-30T05:05:29.364Z,97241.03
2023-01-30T05:06:32.226Z,97234.56
2023-01-30T05:07:34.330Z,97238.28
2023-01-30T05:08:36.552Z,97237.84
2023-01-30T05:09:38.910Z,97235.66
2023-01-30T05:10:41.322Z,97238.09
2023-01-30T05:11:43.255Z,97223.72
2023-01-30T05:12:45.941Z,97224.38
2023-01-30T05:13:48.372Z,97218.47
2023-01-30T05:14:50.167Z,97211.25
2023-01-30T05:15:52.291Z,97208.91
2023-01-30T05:16:54.306Z,97197.13
2023-01-30T05:17:56.285Z,97198.88
2023-01-30T05:18:58.693Z,97183.09
2023-01-30T05:20:00.458Z,97183.69
2023-01-30T05:21:13.894Z,97186.50
2023-01-30T05:22:15.915Z,97175.13
2023-01-30T05:23:17.996Z,97171.53
2023-01-30T05:24:20.223Z,97173.53
2023-01-30T05:25:22.160Z,97178.09
2023-01-30T05:26:24.549Z,97188.75
2023-01-30T05:27:26.392Z,97182.59
2023-01-30T05:28:29.595Z,97183.53
2023-01-30T05:29:31.786Z,97185.25
2023-01-30T05:30:33.937Z,97193.41
2023-01-30T05:31:35.956Z,97200.13
2023-01-30T05:32:37.990Z,97202.91
2023-01-30T05:33:41.631Z,97210.34
2023-01-30T05:34:43.808Z,97213.50
2023-01-30T05:35:50.044Z,97208.75
2023-01-30T05:36:52.168Z,97205.38
2023-01-30T05:37:54.276Z,97199.56
2023-01-30T05:38:56.281Z,97199.47
2023-01-30T05:39:58.437Z,97200.19
2023-01-30T05:41:05.735Z,97207.72
2023-01-30T05:42:07.995Z,97205.66
2023-01-30T05:43:09.985Z,97209.72
2023-01-30T05:44:12.693Z,97204.97
2023-01-30T05:45:14.909Z,97212.31
2023-01-30T05:46:17.183Z,97214.41
2023-01-30T05:47:19.205Z,97216.63
2023-01-30T05:48:22.289Z,97219.06
2023-01-30T05:49:24.652Z,97211.06
2023-01-30T05:50:26.804Z,97217.69
2023-01-30T05:51:29.135Z,97209.69
2023-01-30T05:52:31.724Z,97204.47
2023-01-30T05:53:37.611Z,97195.75
2023-01-30T05:54:39.712Z,97201.91
2023-01-30T05:55:41.816Z,97201.53
2023-01-30T05:56:43.848Z,97201.19
2023-01-30T05:57:45.777Z,97195.38
2023-01-30T05:58:52.741Z,97182.69
2023-01-30T05:59:54.700Z,97176.09
2023-01-30T06:01:02.131Z,97177.44
2023-01-30T06:02:04.208Z,97193.44
2023-01-30T06:03:06.164Z,97197.38
2023-01-30T06:04:08.314Z,97189.72
2023-01-30T06:05:10.423Z,97187.34
2023-01-30T06:06:13.645Z,97196.56
2023-01-30T06:07:15.875Z,97188.06
2023-01-30T06:08:17.854Z,97194.81
2023-01-30T06:09:19.880Z,97193.41
2023-01-30T06:10:22.408Z,97198.28
2023-01-30T06:11:24.830Z,97201.44
2023-01-30T06:12:26.746Z,97205.97
2023-01-30T06:13:28.937Z,97203.19
2023-01-30T06:14:30.909Z,97206.25
2023-01-30T06:15:33.520Z,97198.31
2023-01-30T06:16:35.565Z,97183.00
2023-01-30T06:17:37.749Z,97176.75
2023-01-30T06:18:40.222Z,97171.97
2023-01-30T06:19:42.013Z,97173.94
2023-01-30T06:20:49.577Z,97168.03
2023-01-30T06:21:51.584Z,97157.22
2023-01-30T06:22:53.857Z,97141.66
2023-01-30T06:23:55.791Z,97135.03
2023-01-30T06:24:57.797Z,97138.16
2023-01-30T06:25:59.888Z,97159.47
2023-01-30T06:27:01.953Z,97162.81
2023-01-30T06:28:07.290Z,97167.91
2023-01-30T06:29:09.340Z,97149.69
2023-01-30T06:30:11.907Z,97148.56
2023-01-30T06:31:13.978Z,97139.03
2023-01-30T06:32:16.130Z,97139.75
2023-01-30T06:33:19.070Z,97141.66
2023-01-30T06:34:20.981Z,97130.97
2023-01-30T06:35:23.191Z,97138.09
2023-01-30T06:36:25.269Z,97137.63
2023-01-30T06:37:27.853Z,97127.88
2023-01-30T06:38:29.980Z,97126.59
2023-01-30T06:39:32.171Z,97118.84
2023-01-30T06:40:34.115Z,97113.38
2023-01-30T06:41:36.073Z,97112.47
2023-01-30T06:42:38.026Z,97117.22
2023-01-30T06:43:42.960Z,97109.41
2023-01-30T06:44:45.171Z,97109.78
2023-01-30T06:45:47.597Z,97107.56
2023-01-30T06:46:49.685Z,97114.84
2023-01-30T06:47:55.674Z,97108.25
2023-01-30T06:48:59.717Z,97101.03
2023-01-30T06:50:01.717Z,97102.91
2023-01-30T06:51:03.783Z,97108.25
2023-01-30T06:52:05.830Z,97112.31
2023-01-30T06:53:08.678Z,97111.97
2023-01-30T06:54:10.743Z,97114.53
2023-01-30T06:55:15.508Z,97108.94
2023-01-30T06:56:17.680Z,97114.06
2023-01-30T06:57:19.640Z,97121.47
2023-01-30T06:58:21.932Z,97119.19
2023-01-30T06:59:24.027Z,97132.41
2023-01-30T07:00:26.037Z,97130.91
2023-01-30T07:01:29.092Z,97127.53
2023-01-30T07:02:34.953Z,97131.28
2023-01-30T07:03:37.345Z,97134.97
2023-01-30T07:04:39.449Z,97134.50
2023-01-30T07:05:43.364Z,97136.16
2023-01-30T07:06:47.036Z,97141.84
2023-01-30T07:07:49.177Z,97149.38
2023-01-30T07:08:51.143Z,97145.22
2023-01-30T07:10:06.969Z,97143.56
2023-01-30T07:11:09.516Z,97150.91
2023-01-30T07:12:11.420Z,97153.13
2023-01-30T07:13:14.062Z,97144.66
2023-01-30T07:14:16.067Z,97140.22
2023-01-30T07:15:18.678Z,97144.28
2023-01-30T07:16:21.055Z,97137.78
2023-01-30T07:17:23.603Z,97136.13
2023-01-30T07:18:25.387Z,97131.72
2023-01-30T07:19:27.321Z,97138.38
2023-01-30T07:20:31.756Z,97136.25
2023-01-30T07:21:33.783Z,97140.31
2023-01-30T07:22:35.908Z,97141.16
2023-01-30T07:23:37.953Z,97145.22
2023-01-30T07:24:40.813Z,97133.38
2023-01-30T07:25:42.912Z,97128.69
2023-01-30T07:26:48.464Z,97133.81
2023-01-30T07:27:52.403Z,97144.88
2023-01-30T07:28:54.387Z,97148.13
2023-01-30T07:29:56.371Z,97147.91
2023-01-30T07:31:02.173Z,97136.38
2023-01-30T07:32:05.935Z,97144.16
2023-01-30T07:33:08.061Z,97160.09
2023-01-30T07:34:10.023Z,97150.91
2023-01-30T07:35:12.098Z,97144.75
2023-01-30T07:36:14.182Z,97150.78
2023-01-30T07:37:16.184Z,97150.34
2023-01-30T07:38:18.214Z,97143.94
2023-01-30T07:39:20.181Z,97144.28
2023-01-30T07:40:23.288Z,97144.41
2023-01-30T07:41:25.551Z,97141.16
2023-01-30T07:42:27.622Z,97132.91
2023-01-30T07:43:29.595Z,97131.75
2023-01-30T07:44:32.171Z,97143.56
2023-01-30T07:45:39.999Z,97133.84
2023-01-30T07:46:42.209Z,97126.59
2023-01-30T07:47:44.133Z,97117.91
2023-01-30T07:48:47.231Z,97121.50
2023-01-30T07:49:49.693Z,97127.31
2023-01-30T07:50:51.627Z,97130.81
2023-01-30T07:51:53.682Z,97122.34
2023-01-30T07:52:55.716Z,97138.38
2023-01-30T07:53:57.754Z,97132.31
2023-01-30T07:55:01.479Z,97124.53
2023-01-30T07:56:08.595Z,97105.25
2023-01-30T07:57:10.613Z,97112.91
2023-01-30T07:58:15.718Z,97118.03
2023-01-30T07:59:17.716Z,97122.09
2023-01-30T08:00:20.574Z,97125.22
2023-01-30T08:01:24.059Z,97113.94
2023-01-30T08:02:26.146Z,97109.88
2023-01-30T08:03:28.830Z,97115.91
2023-01-30T08:04:30.814Z,97122.19
2023-01-30T08:05:32.829Z,97108.97
2023-01-30T08:06:39.299Z,97111.75
2023-01-30T08:07:41.741Z,97119.88
2023-01-30T08:08:44.029Z,97111.16
2023-01-30T08:09:46.135Z,97101.63
2023-01-30T08:10:51.210Z,97104.06
2023-01-30T08:11:53.225Z,97097.69
2023-01-30T08:12:55.750Z,97100.13
2023-01-30T08:13:57.710Z,97109.19
2023-01-30T08:14:59.785Z,97104.88
2023-01-30T08:16:07.576Z,97113.38
2023-01-30T08:17:09.696Z,97114.91
2023-01-30T08:18:12.093Z,97104.22
2023-01-30T08:19:13.931Z,97100.59
2023-01-30T08:20:18.219Z,97123.50
2023-01-30T08:21:20.380Z,97127.31
2023-01-30T08:22:22.437Z,97093.59
2023-01-30T08:23:24.633Z,97108.94
2023-01-30T08:24:26.680Z,97117.56
2023-01-30T08:25:29.816Z,97108.94
2023-01-30T08:26:32.139Z,97092.31
2023-01-30T08:27:34.193Z,97096.53
2023-01-30T08:28:36.265Z,97104.63
2023-01-30T08:29:38.197Z,97095.78
2023-01-30T08:30:42.060Z,97081.97
2023-01-30T08:31:44.847Z,97079.53
2023-01-30T08:32:47.137Z,97078.47
2023-01-30T08:33:49.068Z,97086.25
2023-01-30T08:34:51.082Z,97094.28
2023-01-30T08:35:53.363Z,97094.19
2023-01-30T08:36:55.272Z,97083.50
2023-01-30T08:37:57.347Z,97092.09
2023-01-30T08:38:59.360Z,97098.50
2023-01-30T08:40:01.442Z,97087.78
2023-01-30T08:41:08.506Z,97094.78
2023-01-30T08:42:10.474Z,97091.88
2023-01-30T08:43:12.682Z,97090.81
2023-01-30T08:44:14.738Z,97093.28
2023-01-30T08:45:16.884Z,97108.13
2023-01-30T08:46:21.191Z,97112.19
2023-01-30T08:47:23.181Z,97096.47
2023-01-30T08:48:25.760Z,97084.84
2023-01-30T08:49:28.442Z,97078.44
2023-01-30T08:50:31.577Z,97092.16
2023-01-30T08:51:34.389Z,97098.34
2023-01-30T08:52:36.440Z,97104.84
2023-01-30T08:53:38.896Z,97095.28
2023-01-30T08:54:40.685Z,97092.38
2023-01-30T08:55:44.773Z,97095.50
2023-01-30T08:56:47.088Z,97087.25
2023-01-30T08:57:49.808Z,97075.75
2023-01-30T08:58:51.799Z,97059.25
2023-01-30T08:59:53.790Z,97062.97
2023-01-30T09:00:55.899Z,97080.44
2023-01-30T09:01:57.905Z,97089.28
2023-01-30T09:03:02.115Z,97083.91
2023-01-30T09:04:05.205Z,97072.88
2023-01-30T09:05:08.610Z,97062.72
2023-01-30T09:06:10.705Z,97061.81
2023-01-30T09:07:12.741Z,97063.41
2023-01-30T09:08:14.746Z,97077.38
2023-01-30T09:09:16.779Z,97062.91
2023-01-30T09:10:19.457Z,97060.56
2023-01-30T09:11:21.755Z,97063.81
2023-01-30T09:12:23.936Z,97055.22
2023-01-30T09:13:26.607Z,97060.09
2023-01-30T09:14:28.769Z,97054.16
2023-01-30T09:15:30.752Z,97068.56
2023-01-30T09:16:32.780Z,97065.31
2023-01-30T09:17:34.843Z,97055.22
2023-01-30T09:18:41.865Z,97045.69
2023-01-30T09:19:43.855Z,97042.44
2023-01-30T09:20:46.651Z,97043.94
2023-01-30T09:21:50.661Z,97046.38
2023-01-30T09:22:52.676Z,97035.09
2023-01-30T09:23:56.440Z,97032.50
2023-01-30T09:24:59.372Z,97038.00
2023-01-30T09:26:02.576Z,97040.59
2023-01-30T09:27:04.821Z,97045.19
2023-01-30T09:28:07.124Z,97034.06
2023-01-30T09:29:09.311Z,97041.69
2023-01-30T09:30:12.326Z,97044.31
2023-01-30T09:31:14.938Z,97051.19
2023-01-30T09:32:16.963Z,97050.69
2023-01-30T09:33:20.686Z,97048.75
2023-01-30T09:34:30.586Z,97042.25
2023-01-30T09:35:32.694Z,97026.81
2023-01-30T09:36:34.793Z,97019.09
2023-01-30T09:37:37.230Z,97026.88
2023-01-30T09:38:39.089Z,97034.28
2023-01-30T09:39:41.151Z,97044.53
2023-01-30T09:40:52.033Z,97032.88
2023-01-30T09:42:06.253Z,97025.00
2023-01-30T09:43:32.755Z,97020.44
2023-01-30T09:44:46.698Z,97026.06
2023-01-30T09:46:00.752Z,97035.00
2023-01-30T09:47:13.268Z,97032.41
2023-01-30T09:48:34.101Z,97034.06
2023-01-30T09:50:02.078Z,97018.94
2023-01-30T09:51:19.806Z,97013.28
2023-01-30T09:52:38.908Z,97023.69
2023-01-30T09:54:18.919Z,97017.19
2023-01-30T09:55:25.685Z,97000.06
2023-01-30T09:56:28.025Z,97007.94
2023-01-30T09:57:30.116Z,97007.66
2023-01-30T09:58:52.395Z,97002.22
2023-01-30T10:00:15.768Z,96986.31
2023-01-30T10:01:38.501Z,96979.75
2023-01-30T10:02:40.430Z,96994.84
2023-01-30T10:03:49.945Z,96985.13
2023-01-30T10:05:01.402Z,96981.63
2023-01-30T10:06:07.935Z,96985.44
2023-01-30T10:07:20.797Z,96978.53
2023-01-30T10:08:41.213Z,96967.50
2023-01-30T10:09:45.828Z,96954.94
2023-01-30T10:11:00.896Z,96950.63
2023-01-30T10:12:20.710Z,96965.88
2023-01-30T10:13:29.088Z,96971.44
2023-01-30T10:14:37.030Z,96957.38
2023-01-30T10:15:38.918Z,96973.16
2023-01-30T10:16:48.273Z,96972.19
2023-01-30T10:17:55.762Z,96956.00
2023-01-30T10:19:18.174Z,96954.78
2023-01-30T10:20:26.955Z,96951.03
2023-01-30T10:21:37.937Z,96950.91
2023-01-30T10:22:46.071Z,96950.78
2023-01-30T10:23:57.432Z,96948.72
2023-01-30T10:25:05.276Z,96941.47
2023-01-30T10:26:07.075Z,96953.06
2023-01-30T10:27:12.613Z,96953.72
2023-01-30T10:28:28.355Z,96945.78
2023-01-30T10:29:31.939Z,96940.09
2023-01-30T10:30:34.593Z,96946.84
2023-01-30T10:31:45.729Z,96950.50
2023-01-30T10:32:56.213Z,96946.31
2023-01-30T10:34:02.740Z,96926.91
2023-01-30T10:35:14.251Z,96936.75
2023-01-30T10:36:23.783Z,96937.69
2023-01-30T10:37:45.010Z,96938.50
2023-01-30T10:38:54.317Z,96927.16
2023-01-30T10:39:56.611Z,96918.53
2023-01-30T10:40:58.321Z,96929.34
2023-01-30T10:42:03.130Z,96928.81
2023-01-30T10:43:25.274Z,96913.28
2023-01-30T10:44:27.168Z,96903.53
2023-01-30T10:45:52.333Z,96919.22
2023-01-30T10:47:12.881Z,96906.09
2023-01-30T10:48:18.126Z,96896.94
2023-01-30T10:49:24.057Z,96908.53
2023-01-30T10:50:30.514Z,96908.94
2023-01-30T10:51:41.468Z,96902.59
2023-01-30T10:52:57.881Z,96892.34
2023-01-30T10:54:02.779Z,96870.72
2023-01-30T10:55:36.377Z,96881.25
2023-01-30T10:56:42.662Z,96886.06
2023-01-30T10:57:51.020Z,96877.13
2023-01-30T10:59:06.781Z,96866.31
2023-01-30T11:00:14.658Z,96866.97
2023-01-30T11:01:24.361Z,96866.72
2023-01-30T11:02:36.229Z,96845.16
2023-01-30T11:03:40.844Z,96847.03
2023-01-30T11:05:03.967Z,96846.59
2023-01-30T11:06:08.146Z,96832.72
2023-01-30T11:07:10.291Z,96834.19
2023-01-30T11:08:18.457Z,96830.53
2023-01-30T11:09:20.236Z,96840.41
2023-01-30T11:10:23.961Z,96839.97
2023-01-30T11:11:25.721Z,96837.47
2023-01-30T11:12:27.518Z,96833.69
2023-01-30T11:13:31.264Z,96838.69
2023-01-30T11:14:49.758Z,96830.00
2023-01-30T11:15:52.940Z,96824.38
2023-01-30T11:16:56.206Z,96822.72
2023-01-30T11:18:40.396Z,96832.09
2023-01-30T11:19:33.887Z,96825.72
2023-01-30T11:20:43.905Z,96807.56
2023-01-30T11:22:00.176Z,96800.47
2023-01-30T11:23:06.805Z,96791.25
2023-01-30T11:24:35.159Z,96804.97
2023-01-30T11:25:56.682Z,96802.47
2023-01-30T11:27:16.321Z,96784.81
2023-01-30T11:28:19.680Z,96786.97
2023-01-30T11:29:26.894Z,96770.44
2023-01-30T11:30:29.953Z,96767.25
2023-01-30T11:31:41.429Z,96773.72
2023-01-30T11:32:45.115Z,96779.16
2023-01-30T11:33:58.932Z,96771.13
2023-01-30T11:35:06.742Z,96766.00
2023-01-30T11:36:28.663Z,96765.06
2023-01-30T11:37:34.960Z,96767.81
2023-01-30T11:38:40.627Z,96773.34
2023-01-30T11:39:48.972Z,96770.44
2023-01-30T11:40:50.872Z,96764.97
2023-01-30T11:42:05.226Z,96759.31
2023-01-30T11:43:12.183Z,96745.44
2023-01-30T11:44:13.966Z,96746.56
2023-01-30T11:45:18.560Z,96753.78
2023-01-30T11:46:21.427Z,96747.31
2023-01-30T11:47:25.645Z,96756.81
2023-01-30T11:48:32.760Z,96750.81
2023-01-30T11:50:00.624Z,96730.59
2023-01-30T11:51:17.367Z,96726.19
2023-01-30T11:52:20.723Z,96722.88
2023-01-30T11:53:31.401Z,96723.84
2023-01-30T11:54:35.016Z,96710.59
2023-01-30T11:55:37.883Z,96714.13
2023-01-30T11:56:42.912Z,96722.16
2023-01-30T11:57:47.460Z,96729.06
2023-01-30T11:58:58.335Z,96716.84
2023-01-30T12:00:01.125Z,96693.78
2023-01-30T12:01:03.638Z,96688.56
2023-01-30T12:02:11.365Z,96687.69
2023-01-30T12:03:15.152Z,96703.31
2023-01-30T12:04:17.801Z,96695.66
2023-01-30T12:05:43.099Z,96684.50
2023-01-30T12:06:44.836Z,96681.50
2023-01-30T12:07:49.523Z,96687.84
2023-01-30T12:08:55.460Z,96678.34
2023-01-30T12:09:58.830Z,96671.22
2023-01-30T12:11:02.787Z,96680.13
2023-01-30T12:12:24.495Z,96676.56
2023-01-30T12:13:30.944Z,96670.31
2023-01-30T12:14:39.345Z,96663.50
2023-01-30T12:15:41.600Z,96660.47
2023-01-30T12:16:51.902Z,96659.81
2023-01-30T12:17:56.605Z,96651.50
2023-01-30T12:19:15.812Z,96648.38
2023-01-30T12:20:20.706Z,96646.00
2023-01-30T12:21:28.299Z,96635.00
2023-01-30T12:22:42.169Z,96633.38
2023-01-30T12:23:47.628Z,96641.94
2023-01-30T12:24:57.080Z,96640.38
2023-01-30T12:26:06.000Z,96635.50
2023-01-30T12:27:25.039Z,96617.88
2023-01-30T12:28:33.253Z,96608.59
2023-01-30T12:29:43.657Z,96615.59
2023-01-30T12:30:57.110Z,96622.94
2023-01-30T12:33:12.437Z,96610.94
2023-01-30T12:34:14.365Z,96607.50
2023-01-30T12:35:22.073Z,96600.56
2023-01-30T12:36:44.217Z,96613.06
2023-01-30T12:37:52.089Z,96630.47
2023-01-30T12:38:53.926Z,96607.22
2023-01-30T12:39:56.548Z,96597.50
2023-01-30T12:41:18.717Z,96599.38
2023-01-30T12:42:23.696Z,96597.59
2023-01-30T12:43:51.858Z,96601.84
2023-01-30T12:44:53.944Z,96596.97
2023-01-30T12:46:24.957Z,96590.47
2023-01-30T12:48:05.254Z,96581.53
2023-01-30T12:49:11.260Z,96579.81
2023-01-30T12:50:42.871Z,96574.56
2023-01-30T12:51:52.264Z,96578.31
2023-01-30T12:53:12.779Z,96566.88
2023-01-30T12:54:14.627Z,96562.59
2023-01-30T12:55:22.415Z,96580.06
2023-01-30T12:56:43.360Z,96564.88
2023-01-30T12:57:45.163Z,96535.81
2023-01-30T12:58:58.527Z,96540.25